Strona główna
METAR-TAF:

METAR-TAF

Lotnisko :

Port lotniczy Lycksele

Lycksele, Szwecja

Szerokość geograficzna: 64-32-51N, Długość geograficzna: 018-43-03E, wysokość: 211 m

Aktualna obserwacja pogody

Raport powstał 27 minut temu, godzina 01:20 UTC
Wiatr 9 kt od zachód
Temperatura 0°C
Wilgotność 80%
Ciśnienie 966 hPa
Widzialność 10 km lub więcej

METAR: ESNL 230120Z AUTO 26009KT 9999 NCD 00/M03 Q0966

czas: 02:47 (01:47 UTC)


TAF: brakujący

Obserwacja i prognoza pogody dla ponad 4000 lotnisk (raport METAR i TAF).

Dostępne stacje oznaczono żółtymi i czerwonymi punktami na mapie.

Najedź kursorem aby zobaczyć nazwę stacji.

Kliknij aby zobaczyć obserwacje i prognozy pogody.

Aby zmienić mapę: kliknij na zielony przycisk z czarnym krzyżykiem, aby powiększyć; na zielony przycisk z myślnikiem, aby pomniejszyć; na zielone strzałki, aby przejść do map sąsiednich.


METAR-TAF: